sensor_id;sensor_type;location;lat;lon;timestamp;pressure;altitude;pressure_sealevel;temperature;humidity
13553;BME280;6847;48.830;9.116;2023-05-22T00:01:37;97511.50;;;19.11;50.11
13553;BME280;6847;48.830;9.116;2023-05-22T00:04:03;97496.19;;;18.98;50.60
13553;BME280;6847;48.830;9.116;2023-05-22T00:06:31;97506.59;;;19.04;50.27
13553;BME280;6847;48.830;9.116;2023-05-22T00:08:58;97500.06;;;18.97;50.35
13553;BME280;6847;48.830;9.116;2023-05-22T00:11:24;97503.16;;;18.95;50.43
13553;BME280;6847;48.830;9.116;2023-05-22T00:13:51;97504.19;;;19.03;50.55
13553;BME280;6847;48.830;9.116;2023-05-22T00:16:20;97467.38;;;18.79;51.01
13553;BME280;6847;48.830;9.116;2023-05-22T00:18:47;97499.41;;;19.00;50.61
13553;BME280;6847;48.830;9.116;2023-05-22T00:21:14;97500.06;;;18.97;50.71
13553;BME280;6847;48.830;9.116;2023-05-22T00:23:41;97499.59;;;18.95;50.59
13553;BME280;6847;48.830;9.116;2023-05-22T00:26:09;97500.63;;;18.90;50.96
13553;BME280;6847;48.830;9.116;2023-05-22T00:28:36;97500.53;;;18.87;51.06
13553;BME280;6847;48.830;9.116;2023-05-22T00:31:03;97494.56;;;18.84;51.10
13553;BME280;6847;48.830;9.116;2023-05-22T00:33:31;97510.09;;;18.80;51.06
13553;BME280;6847;48.830;9.116;2023-05-22T00:35:58;97499.47;;;18.79;51.42
13553;BME280;6847;48.830;9.116;2023-05-22T00:38:27;97497.41;;;18.76;51.08
13553;BME280;6847;48.830;9.116;2023-05-22T00:40:54;97486.88;;;18.66;51.52
13553;BME280;6847;48.830;9.116;2023-05-22T00:43:22;97503.91;;;18.71;51.46
13553;BME280;6847;48.830;9.116;2023-05-22T00:45:49;97497.97;;;18.69;51.40
13553;BME280;6847;48.830;9.116;2023-05-22T00:48:16;97499.13;;;18.68;51.67
13553;BME280;6847;48.830;9.116;2023-05-22T00:50:44;97488.56;;;18.58;51.71
13553;BME280;6847;48.830;9.116;2023-05-22T00:53:12;97495.66;;;18.59;51.61
13553;BME280;6847;48.830;9.116;2023-05-22T00:55:39;97500.19;;;18.55;51.69
13553;BME280;6847;48.830;9.116;2023-05-22T00:58:08;97498.09;;;18.52;51.71
13553;BME280;6847;48.830;9.116;2023-05-22T01:00:36;97497.66;;;18.50;51.64
13553;BME280;6847;48.830;9.116;2023-05-22T01:03:04;97496.72;;;18.46;51.82
13553;BME280;6847;48.830;9.116;2023-05-22T01:05:32;97496.25;;;18.44;51.80
13553;BME280;6847;48.830;9.116;2023-05-22T01:08:00;97445.22;;;18.06;51.75
13553;BME280;6847;48.830;9.116;2023-05-22T01:10:27;97502.78;;;18.39;51.99
13553;BME280;6847;48.830;9.116;2023-05-22T01:12:59;97497.16;;;18.36;51.91
13553;BME280;6847;48.830;9.116;2023-05-22T01:15:34;97501.69;;;18.32;52.35
13553;BME280;6847;48.830;9.116;2023-05-22T01:18:10;97506.25;;;18.28;52.42
13553;BME280;6847;48.830;9.116;2023-05-22T01:20:49;97505.31;;;18.24;52.51
13553;BME280;6847;48.830;9.116;2023-05-22T01:23:34;97504.41;;;18.20;52.20
13553;BME280;6847;48.830;9.116;2023-05-22T01:26:19;97458.59;;;17.87;52.93
13553;BME280;6847;48.830;9.116;2023-05-22T01:28:55;97514.41;;;18.16;52.38
13553;BME280;6847;48.830;9.116;2023-05-22T01:31:30;97501.59;;;18.07;52.34
13553;BME280;6847;48.830;9.116;2023-05-22T01:33:59;97513.94;;;18.13;52.58
13553;BME280;6847;48.830;9.116;2023-05-22T01:36:30;97509.16;;;18.10;52.77
13553;BME280;6847;48.830;9.116;2023-05-22T01:39:01;97491.53;;;17.99;52.93
13553;BME280;6847;48.830;9.116;2023-05-22T01:41:31;97493.78;;;17.97;52.72
13553;BME280;6847;48.830;9.116;2023-05-22T01:43:59;97512.56;;;18.07;52.79
13553;BME280;6847;48.830;9.116;2023-05-22T01:46:26;97447.97;;;17.65;53.12
13553;BME280;6847;48.830;9.116;2023-05-22T01:48:56;97503.88;;;18.05;52.93
13553;BME280;6847;48.830;9.116;2023-05-22T01:51:28;97514.34;;;18.03;52.68
13553;BME280;6847;48.830;9.116;2023-05-22T01:54:03;97517.78;;;18.00;53.04
13553;BME280;6847;48.830;9.116;2023-05-22T01:56:40;97514.56;;;17.98;53.36
13553;BME280;6847;48.830;9.116;2023-05-22T01:59:14;97515.22;;;17.95;53.08
13553;BME280;6847;48.830;9.116;2023-05-22T02:01:47;97514.31;;;17.91;53.31
13553;BME280;6847;48.830;9.116;2023-05-22T02:04:18;97517.72;;;17.88;53.33
13553;BME280;6847;48.830;9.116;2023-05-22T02:06:46;97517.22;;;17.86;53.56
13553;BME280;6847;48.830;9.116;2023-05-22T02:09:15;97519.50;;;17.84;53.54
13553;BME280;6847;48.830;9.116;2023-05-22T02:11:42;97510.84;;;17.82;53.48
13553;BME280;6847;48.830;9.116;2023-05-22T02:14:11;97422.34;;;17.19;53.52
13553;BME280;6847;48.830;9.116;2023-05-22T02:16:38;97521.50;;;17.75;53.44
13553;BME280;6847;48.830;9.116;2023-05-22T02:19:06;97513.97;;;17.72;53.71
13553;BME280;6847;48.830;9.116;2023-05-22T02:21:35;97511.88;;;17.69;53.60
13553;BME280;6847;48.830;9.116;2023-05-22T02:24:02;97522.34;;;17.67;53.78
13553;BME280;6847;48.830;9.116;2023-05-22T02:26:29;97514.81;;;17.64;53.87
13553;BME280;6847;48.830;9.116;2023-05-22T02:28:56;97518.66;;;17.63;54.04
13553;BME280;6847;48.830;9.116;2023-05-22T02:31:22;97503.75;;;17.52;54.03
13553;BME280;6847;48.830;9.116;2023-05-22T02:33:50;97510.63;;;17.58;53.65
13553;BME280;6847;48.830;9.116;2023-05-22T02:36:17;97491.06;;;17.47;54.09
13553;BME280;6847;48.830;9.116;2023-05-22T02:38:45;97510.63;;;17.58;53.92
13553;BME280;6847;48.830;9.116;2023-05-22T02:41:12;97499.69;;;17.58;53.90
13553;BME280;6847;48.830;9.116;2023-05-22T02:43:38;97496.34;;;17.52;53.78
13553;BME280;6847;48.830;9.116;2023-05-22T02:46:05;97503.56;;;17.57;54.14
13553;BME280;6847;48.830;9.116;2023-05-22T02:48:32;97506.78;;;17.59;53.75
13553;BME280;6847;48.830;9.116;2023-05-22T02:50:59;97492.34;;;17.50;54.07
13553;BME280;6847;48.830;9.116;2023-05-22T02:53:25;97513.84;;;17.60;53.91
13553;BME280;6847;48.830;9.116;2023-05-22T02:55:53;97509.84;;;17.57;53.89
13553;BME280;6847;48.830;9.116;2023-05-22T02:58:23;97508.69;;;17.58;54.40
13553;BME280;6847;48.830;9.116;2023-05-22T03:00:50;97478.41;;;17.34;54.37
13553;BME280;6847;48.830;9.116;2023-05-22T03:03:18;97507.16;;;17.49;54.14
13553;BME280;6847;48.830;9.116;2023-05-22T03:05:44;97430.78;;;17.06;54.14
13553;BME280;6847;48.830;9.116;2023-05-22T03:08:11;97521.59;;;17.58;54.39
13553;BME280;6847;48.830;9.116;2023-05-22T03:10:39;97519.97;;;17.57;54.20
13553;BME280;6847;48.830;9.116;2023-05-22T03:13:07;97525.44;;;17.57;54.17
13553;BME280;6847;48.830;9.116;2023-05-22T03:15:34;97490.16;;;17.34;54.65
13553;BME280;6847;48.830;9.116;2023-05-22T03:18:00;97522.25;;;17.55;54.72
13553;BME280;6847;48.830;9.116;2023-05-22T03:20:27;97524.97;;;17.55;54.81
13553;BME280;6847;48.830;9.116;2023-05-22T03:22:54;97519.06;;;17.53;54.46
13553;BME280;6847;48.830;9.116;2023-05-22T03:25:22;97522.91;;;17.52;54.82
13553;BME280;6847;48.830;9.116;2023-05-22T03:27:49;97519.44;;;17.43;54.54
13553;BME280;6847;48.830;9.116;2023-05-22T03:30:17;97524.38;;;17.49;54.92
13553;BME280;6847;48.830;9.116;2023-05-22T03:32:43;97525.19;;;17.50;54.58
13553;BME280;6847;48.830;9.116;2023-05-22T03:35:10;97530.00;;;17.53;55.06
13553;BME280;6847;48.830;9.116;2023-05-22T03:37:39;97525.44;;;17.57;55.03
13553;BME280;6847;48.830;9.116;2023-05-22T03:40:07;97530.41;;;17.63;54.68
13553;BME280;6847;48.830;9.116;2023-05-22T03:42:35;97529.91;;;17.70;54.59
13553;BME280;6847;48.830;9.116;2023-05-22T03:45:03;97533.25;;;17.75;54.61
13553;BME280;6847;48.830;9.116;2023-05-22T03:47:30;97533.88;;;17.81;54.57
13553;BME280;6847;48.830;9.116;2023-05-22T03:49:58;97544.63;;;17.86;54.71
13553;BME280;6847;48.830;9.116;2023-05-22T03:52:25;97533.66;;;17.86;54.58
13553;BME280;6847;48.830;9.116;2023-05-22T03:54:51;97543.41;;;17.96;55.06
13553;BME280;6847;48.830;9.116;2023-05-22T03:57:18;97540.34;;;17.97;54.62
13553;BME280;6847;48.830;9.116;2023-05-22T03:59:45;97540.13;;;18.02;54.91
13553;BME280;6847;48.830;9.116;2023-05-22T04:02:11;97478.56;;;17.67;54.40
13553;BME280;6847;48.830;9.116;2023-05-22T04:04:42;97532.88;;;18.06;54.63
13553;BME280;6847;48.830;9.116;2023-05-22T04:07:10;97551.66;;;18.17;54.94
13553;BME280;6847;48.830;9.116;2023-05-22T04:09:38;97550.50;;;18.18;54.76
13553;BME280;6847;48.830;9.116;2023-05-22T04:12:06;97549.16;;;18.24;54.62
13553;BME280;6847;48.830;9.116;2023-05-22T04:14:34;97542.69;;;18.28;54.93
13553;BME280;6847;48.830;9.116;2023-05-22T04:17:01;97547.16;;;18.33;54.69
13553;BME280;6847;48.830;9.116;2023-05-22T04:19:27;97548.91;;;18.37;54.53
13553;BME280;6847;48.830;9.116;2023-05-22T04:21:56;97550.59;;;18.42;54.97
13553;BME280;6847;48.830;9.116;2023-05-22T04:24:23;97550.16;;;18.40;55.02
13553;BME280;6847;48.830;9.116;2023-05-22T04:26:49;97556.09;;;18.42;55.27
13553;BME280;6847;48.830;9.116;2023-05-22T04:29:17;97554.50;;;18.41;55.22
13553;BME280;6847;48.830;9.116;2023-05-22T04:31:46;97554.97;;;18.43;55.59
13553;BME280;6847;48.830;9.116;2023-05-22T04:34:14;97551.31;;;18.39;55.13
13553;BME280;6847;48.830;9.116;2023-05-22T04:36:41;97567.78;;;18.51;55.19
13553;BME280;6847;48.830;9.116;2023-05-22T04:39:11;97549.94;;;18.45;55.39
13553;BME280;6847;48.830;9.116;2023-05-22T04:41:38;97561.56;;;18.63;55.57
13553;BME280;6847;48.830;9.116;2023-05-22T04:44:05;97556.00;;;18.59;55.43
13553;BME280;6847;48.830;9.116;2023-05-22T04:46:32;97564.22;;;18.71;55.42
13553;BME280;6847;48.830;9.116;2023-05-22T04:49:01;97558.53;;;18.76;55.49
13553;BME280;6847;48.830;9.116;2023-05-22T04:51:29;97567.69;;;18.80;55.41
13553;BME280;6847;48.830;9.116;2023-05-22T04:53:57;97574.09;;;18.84;55.49
13553;BME280;6847;48.830;9.116;2023-05-22T04:56:25;97555.34;;;18.74;55.54
13553;BME280;6847;48.830;9.116;2023-05-22T04:58:52;97581.44;;;18.93;55.33
13553;BME280;6847;48.830;9.116;2023-05-22T05:01:20;97577.38;;;18.99;55.50
13553;BME280;6847;48.830;9.116;2023-05-22T05:03:47;97575.53;;;19.03;55.37
13553;BME280;6847;48.830;9.116;2023-05-22T05:06:13;97570.03;;;19.03;55.45
13553;BME280;6847;48.830;9.116;2023-05-22T05:08:41;97576.03;;;19.17;55.14
13553;BME280;6847;48.830;9.116;2023-05-22T05:11:08;97580.13;;;19.23;55.47
13553;BME280;6847;48.830;9.116;2023-05-22T05:13:36;97525.66;;;18.89;55.05
13553;BME280;6847;48.830;9.116;2023-05-22T05:16:03;97575.56;;;19.39;55.27
13553;BME280;6847;48.830;9.116;2023-05-22T05:18:30;97549.84;;;19.32;55.28
13553;BME280;6847;48.830;9.116;2023-05-22T05:20:57;97569.56;;;19.58;55.07
13553;BME280;6847;48.830;9.116;2023-05-22T05:23:24;97577.69;;;19.67;55.17
13553;BME280;6847;48.830;9.116;2023-05-22T05:25:51;97571.72;;;19.77;55.14
13553;BME280;6847;48.830;9.116;2023-05-22T05:28:18;97570.22;;;19.91;55.08
13553;BME280;6847;48.830;9.116;2023-05-22T05:30:47;97517.22;;;19.79;54.97
13553;BME280;6847;48.830;9.116;2023-05-22T05:33:14;97566.47;;;20.24;54.94
13553;BME280;6847;48.830;9.116;2023-05-22T05:35:40;97566.56;;;20.40;54.76
13553;BME280;6847;48.830;9.116;2023-05-22T05:38:07;97566.28;;;20.57;54.73
13553;BME280;6847;48.830;9.116;2023-05-22T05:40:34;97555.22;;;20.69;54.42
13553;BME280;6847;48.830;9.116;2023-05-22T05:43:01;97547.38;;;20.83;54.39
13553;BME280;6847;48.830;9.116;2023-05-22T05:45:28;97570.34;;;21.19;54.23
13553;BME280;6847;48.830;9.116;2023-05-22T05:47:57;97574.78;;;21.39;54.24
13553;BME280;6847;48.830;9.116;2023-05-22T05:50:24;97573.56;;;21.52;54.26
13553;BME280;6847;48.830;9.116;2023-05-22T05:52:50;97577.78;;;21.65;54.04
13553;BME280;6847;48.830;9.116;2023-05-22T05:55:17;97524.97;;;21.44;54.12
13553;BME280;6847;48.830;9.116;2023-05-22T05:57:44;97574.53;;;21.95;53.89
13553;BME280;6847;48.830;9.116;2023-05-22T06:00:11;97585.22;;;22.12;53.92
13553;BME280;6847;48.830;9.116;2023-05-22T06:02:39;97588.56;;;22.21;53.94
13553;BME280;6847;48.830;9.116;2023-05-22T06:05:07;97574.94;;;22.28;53.90
13553;BME280;6847;48.830;9.116;2023-05-22T06:07:34;97587.25;;;22.34;53.92
13553;BME280;6847;48.830;9.116;2023-05-22T06:10:04;97576.97;;;22.31;53.80
13553;BME280;6847;48.830;9.116;2023-05-22T06:12:31;97590.47;;;22.36;54.00
13553;BME280;6847;48.830;9.116;2023-05-22T06:14:57;97597.13;;;22.35;54.00
13553;BME280;6847;48.830;9.116;2023-05-22T06:17:24;97594.56;;;22.42;53.80
13553;BME280;6847;48.830;9.116;2023-05-22T06:19:51;97596.88;;;22.40;53.82
13553;BME280;6847;48.830;9.116;2023-05-22T06:22:19;97600.06;;;22.42;53.94
13553;BME280;6847;48.830;9.116;2023-05-22T06:24:49;97598.88;;;22.43;53.99
13553;BME280;6847;48.830;9.116;2023-05-22T06:27:18;97579.56;;;22.24;54.16
13553;BME280;6847;48.830;9.116;2023-05-22T06:29:47;97582.19;;;22.36;54.11
13553;BME280;6847;48.830;9.116;2023-05-22T06:32:15;97516.59;;;21.91;54.14
13553;BME280;6847;48.830;9.116;2023-05-22T06:34:43;97588.16;;;22.38;54.15
13553;BME280;6847;48.830;9.116;2023-05-22T06:37:11;97588.28;;;22.45;53.93
13553;BME280;6847;48.830;9.116;2023-05-22T06:39:39;97592.38;;;22.51;53.83
13553;BME280;6847;48.830;9.116;2023-05-22T06:42:06;97584.97;;;22.56;53.88
13553;BME280;6847;48.830;9.116;2023-05-22T06:44:33;97599.69;;;22.63;53.71
13553;BME280;6847;48.830;9.116;2023-05-22T06:47:01;97586.06;;;22.51;53.87
13553;BME280;6847;48.830;9.116;2023-05-22T06:49:28;97587.09;;;22.62;53.86
13553;BME280;6847;48.830;9.116;2023-05-22T06:51:55;97600.50;;;22.83;53.58
13553;BME280;6847;48.830;9.116;2023-05-22T06:54:21;97600.38;;;22.95;53.68
13553;BME280;6847;48.830;9.116;2023-05-22T06:56:49;97589.59;;;23.09;53.43
13553;BME280;6847;48.830;9.116;2023-05-22T06:59:16;97608.28;;;23.39;53.11
13553;BME280;6847;48.830;9.116;2023-05-22T07:01:43;97606.66;;;23.57;52.92
13553;BME280;6847;48.830;9.116;2023-05-22T07:04:10;97612.84;;;23.73;52.73
13553;BME280;6847;48.830;9.116;2023-05-22T07:06:38;97617.44;;;23.88;52.65
13553;BME280;6847;48.830;9.116;2023-05-22T07:09:06;97612.97;;;24.07;52.74
13553;BME280;6847;48.830;9.116;2023-05-22T07:11:33;97615.22;;;24.24;52.54
13553;BME280;6847;48.830;9.116;2023-05-22T07:14:01;97600.41;;;24.39;52.28
13553;BME280;6847;48.830;9.116;2023-05-22T07:16:29;97604.22;;;24.57;52.29
13553;BME280;6847;48.830;9.116;2023-05-22T07:18:55;97611.31;;;24.88;52.01
13553;BME280;6847;48.830;9.116;2023-05-22T07:21:24;97605.91;;;24.95;51.94
13553;BME280;6847;48.830;9.116;2023-05-22T07:24:06;97621.63;;;25.21;51.93
13553;BME280;6847;48.830;9.116;2023-05-22T07:26:54;97622.16;;;25.37;51.65
13553;BME280;6847;48.830;9.116;2023-05-22T07:29:22;97611.28;;;25.55;51.64
13553;BME280;6847;48.830;9.116;2023-05-22T07:31:49;97610.66;;;25.76;51.52
13553;BME280;6847;48.830;9.116;2023-05-22T07:34:15;97604.06;;;25.91;51.34
13553;BME280;6847;48.830;9.116;2023-05-22T07:36:43;97618.88;;;26.13;51.20
13553;BME280;6847;48.830;9.116;2023-05-22T07:39:10;97615.44;;;26.27;50.97
13553;BME280;6847;48.830;9.116;2023-05-22T07:41:37;97618.72;;;26.43;51.05
13553;BME280;6847;48.830;9.116;2023-05-22T07:44:04;97616.75;;;26.54;50.52
13553;BME280;6847;48.830;9.116;2023-05-22T07:46:32;97616.50;;;26.73;50.47
13553;BME280;6847;48.830;9.116;2023-05-22T07:49:01;97603.41;;;26.84;50.51
13553;BME280;6847;48.830;9.116;2023-05-22T07:51:28;97613.88;;;27.16;50.17
13553;BME280;6847;48.830;9.116;2023-05-22T07:53:56;97557.09;;;27.03;49.87
13553;BME280;6847;48.830;9.116;2023-05-22T07:56:26;97612.41;;;27.68;49.38
13553;BME280;6847;48.830;9.116;2023-05-22T07:58:53;97609.22;;;27.73;49.23
13553;BME280;6847;48.830;9.116;2023-05-22T08:01:21;97623.53;;;28.07;49.05
13553;BME280;6847;48.830;9.116;2023-05-22T08:03:49;97628.28;;;28.39;48.75
13553;BME280;6847;48.830;9.116;2023-05-22T08:06:16;97618.63;;;28.71;48.37
13553;BME280;6847;48.830;9.116;2023-05-22T08:08:44;97629.66;;;29.03;47.74
13553;BME280;6847;48.830;9.116;2023-05-22T08:11:11;97627.97;;;29.24;47.83
13553;BME280;6847;48.830;9.116;2023-05-22T08:13:38;97625.47;;;29.47;47.71
13553;BME280;6847;48.830;9.116;2023-05-22T08:16:06;97546.78;;;29.15;47.26
13553;BME280;6847;48.830;9.116;2023-05-22T08:18:33;97613.34;;;29.68;47.47
13553;BME280;6847;48.830;9.116;2023-05-22T08:21:01;97578.25;;;29.70;46.85
13553;BME280;6847;48.830;9.116;2023-05-22T08:23:29;97578.66;;;30.17;46.10
13553;BME280;6847;48.830;9.116;2023-05-22T08:25:57;97633.22;;;31.88;44.17
13553;BME280;6847;48.830;9.116;2023-05-22T08:28:23;97635.63;;;32.99;42.31
13553;BME280;6847;48.830;9.116;2023-05-22T08:30:50;97630.94;;;34.00;41.05
13553;BME280;6847;48.830;9.116;2023-05-22T08:33:18;97625.19;;;35.65;39.36
13553;BME280;6847;48.830;9.116;2023-05-22T08:35:45;97635.47;;;37.00;37.75
13553;BME280;6847;48.830;9.116;2023-05-22T08:38:13;97637.84;;;37.54;38.13
13553;BME280;6847;48.830;9.116;2023-05-22T08:40:41;97637.22;;;38.48;37.24
13553;BME280;6847;48.830;9.116;2023-05-22T08:43:10;97636.56;;;39.45;36.38
13553;BME280;6847;48.830;9.116;2023-05-22T08:45:37;97635.41;;;40.50;35.09
13553;BME280;6847;48.830;9.116;2023-05-22T08:48:11;97636.66;;;41.26;34.51
13553;BME280;6847;48.830;9.116;2023-05-22T08:50:40;97633.06;;;40.73;35.55
13553;BME280;6847;48.830;9.116;2023-05-22T08:53:10;97603.47;;;39.51;36.93
13553;BME280;6847;48.830;9.116;2023-05-22T08:55:40;97630.66;;;39.06;37.72
13553;BME280;6847;48.830;9.116;2023-05-22T08:58:07;97617.38;;;39.31;36.62
13553;BME280;6847;48.830;9.116;2023-05-22T09:00:35;97635.06;;;39.68;36.03
13553;BME280;6847;48.830;9.116;2023-05-22T09:03:03;97625.84;;;39.91;35.29
13553;BME280;6847;48.830;9.116;2023-05-22T09:05:34;97634.25;;;39.76;35.51
13553;BME280;6847;48.830;9.116;2023-05-22T09:08:02;97629.66;;;39.46;36.03
13553;BME280;6847;48.830;9.116;2023-05-22T09:10:30;97624.38;;;38.66;36.61
13553;BME280;6847;48.830;9.116;2023-05-22T09:13:00;97596.94;;;37.06;38.05
13553;BME280;6847;48.830;9.116;2023-05-22T09:15:29;97624.72;;;36.04;39.27
13553;BME280;6847;48.830;9.116;2023-05-22T09:17:56;97592.78;;;35.06;39.57
13553;BME280;6847;48.830;9.116;2023-05-22T09:20:24;97621.75;;;34.61;40.25
13553;BME280;6847;48.830;9.116;2023-05-22T09:22:50;97623.91;;;34.08;40.28
13553;BME280;6847;48.830;9.116;2023-05-22T09:25:17;97603.34;;;33.63;40.34
13553;BME280;6847;48.830;9.116;2023-05-22T09:27:45;97574.69;;;33.19;40.38
13553;BME280;6847;48.830;9.116;2023-05-22T09:30:16;97613.09;;;33.22;39.94
13553;BME280;6847;48.830;9.116;2023-05-22T09:32:43;97594.75;;;33.18;39.47
13553;BME280;6847;48.830;9.116;2023-05-22T09:35:11;97620.22;;;34.73;37.45
13553;BME280;6847;48.830;9.116;2023-05-22T09:37:39;97621.25;;;35.08;36.47
13553;BME280;6847;48.830;9.116;2023-05-22T09:40:06;97587.97;;;35.70;35.63
13553;BME280;6847;48.830;9.116;2023-05-22T09:42:34;97615.50;;;35.91;35.83
13553;BME280;6847;48.830;9.116;2023-05-22T09:45:04;97617.78;;;36.18;35.26
13553;BME280;6847;48.830;9.116;2023-05-22T09:47:32;97554.44;;;35.37;35.94
13553;BME280;6847;48.830;9.116;2023-05-22T09:50:02;97611.41;;;35.29;36.52
13553;BME280;6847;48.830;9.116;2023-05-22T09:52:33;97599.91;;;35.99;35.27
13553;BME280;6847;48.830;9.116;2023-05-22T09:55:01;97620.53;;;36.56;34.88
13553;BME280;6847;48.830;9.116;2023-05-22T09:57:31;97619.28;;;37.75;33.32
13553;BME280;6847;48.830;9.116;2023-05-22T09:59:58;97619.63;;;39.17;32.14
13553;BME280;6847;48.830;9.116;2023-05-22T10:02:26;97605.34;;;40.20;30.97
13553;BME280;6847;48.830;9.116;2023-05-22T10:04:54;97623.69;;;40.96;30.40
13553;BME280;6847;48.830;9.116;2023-05-22T10:07:24;97580.13;;;41.14;29.72
13553;BME280;6847;48.830;9.116;2023-05-22T10:09:54;97632.56;;;42.06;29.65
13553;BME280;6847;48.830;9.116;2023-05-22T10:12:22;97621.53;;;42.49;29.36
13553;BME280;6847;48.830;9.116;2023-05-22T10:14:50;97604.16;;;42.67;28.65
13553;BME280;6847;48.830;9.116;2023-05-22T10:17:19;97603.06;;;42.85;29.06
13553;BME280;6847;48.830;9.116;2023-05-22T10:19:46;97633.56;;;43.25;28.97
13553;BME280;6847;48.830;9.116;2023-05-22T10:22:15;97631.91;;;43.44;28.61
13553;BME280;6847;48.830;9.116;2023-05-22T10:24:45;97630.66;;;43.51;28.53
13553;BME280;6847;48.830;9.116;2023-05-22T10:27:13;97620.38;;;43.59;28.26
13553;BME280;6847;48.830;9.116;2023-05-22T10:29:45;97629.16;;;43.87;27.94
13553;BME280;6847;48.830;9.116;2023-05-22T10:32:20;97617.81;;;43.98;27.88
13553;BME280;6847;48.830;9.116;2023-05-22T10:34:52;97624.66;;;44.06;27.51
13553;BME280;6847;48.830;9.116;2023-05-22T10:37:39;97622.91;;;43.83;27.62
13553;BME280;6847;48.830;9.116;2023-05-22T10:40:08;97622.06;;;43.45;27.80
13553;BME280;6847;48.830;9.116;2023-05-22T10:42:36;97618.38;;;43.39;27.96
13553;BME280;6847;48.830;9.116;2023-05-22T10:45:06;97612.91;;;43.36;27.67
13553;BME280;6847;48.830;9.116;2023-05-22T10:47:32;97616.63;;;43.16;27.73
13553;BME280;6847;48.830;9.116;2023-05-22T10:50:03;97605.78;;;43.20;27.89
13553;BME280;6847;48.830;9.116;2023-05-22T10:52:33;97611.19;;;43.49;27.19
13553;BME280;6847;48.830;9.116;2023-05-22T10:55:00;97608.75;;;43.63;27.19
13553;BME280;6847;48.830;9.116;2023-05-22T10:57:31;97612.25;;;43.78;27.12
13553;BME280;6847;48.830;9.116;2023-05-22T11:00:08;97605.78;;;43.83;26.75
13553;BME280;6847;48.830;9.116;2023-05-22T11:02:37;97581.63;;;43.78;26.93
13553;BME280;6847;48.830;9.116;2023-05-22T11:05:32;97600.47;;;43.96;26.46
13553;BME280;6847;48.830;9.116;2023-05-22T11:08:37;97602.81;;;43.98;26.38
13553;BME280;6847;48.830;9.116;2023-05-22T11:11:11;97595.78;;;43.99;26.34
13553;BME280;6847;48.830;9.116;2023-05-22T11:13:38;97577.75;;;43.76;26.63
13553;BME280;6847;48.830;9.116;2023-05-22T11:16:07;97591.81;;;43.53;26.55
13553;BME280;6847;48.830;9.116;2023-05-22T11:18:36;97578.16;;;43.32;26.24
13553;BME280;6847;48.830;9.116;2023-05-22T11:21:08;97586.19;;;43.33;26.17
13553;BME280;6847;48.830;9.116;2023-05-22T11:23:37;97585.63;;;43.29;26.23
13553;BME280;6847;48.830;9.116;2023-05-22T11:26:18;97584.31;;;43.25;25.98
13553;BME280;6847;48.830;9.116;2023-05-22T11:28:50;97594.69;;;43.02;26.43
13553;BME280;6847;48.830;9.116;2023-05-22T11:31:26;97567.72;;;42.51;26.77
13553;BME280;6847;48.830;9.116;2023-05-22T11:33:53;97578.03;;;42.28;26.93
13553;BME280;6847;48.830;9.116;2023-05-22T11:36:21;97543.91;;;41.73;27.28
13553;BME280;6847;48.830;9.116;2023-05-22T11:38:50;97577.50;;;41.39;27.52
13553;BME280;6847;48.830;9.116;2023-05-22T11:41:16;97571.81;;;41.10;27.57
13553;BME280;6847;48.830;9.116;2023-05-22T11:43:43;97575.25;;;40.61;27.79
13553;BME280;6847;48.830;9.116;2023-05-22T11:46:15;97564.84;;;40.43;27.63
13553;BME280;6847;48.830;9.116;2023-05-22T11:48:42;97558.88;;;40.41;27.63
13553;BME280;6847;48.830;9.116;2023-05-22T11:51:09;97544.16;;;40.28;27.68
13553;BME280;6847;48.830;9.116;2023-05-22T11:53:36;97552.97;;;40.06;27.95
13553;BME280;6847;48.830;9.116;2023-05-22T11:56:04;97479.56;;;39.18;28.41
13553;BME280;6847;48.830;9.116;2023-05-22T11:58:31;97553.16;;;39.46;28.14
13553;BME280;6847;48.830;9.116;2023-05-22T12:01:02;97537.63;;;39.23;28.44
13553;BME280;6847;48.830;9.116;2023-05-22T12:03:30;97540.97;;;39.12;28.56
13553;BME280;6847;48.830;9.116;2023-05-22T12:05:57;97535.69;;;38.96;28.87
13553;BME280;6847;48.830;9.116;2023-05-22T12:08:25;97536.00;;;38.71;28.72
13553;BME280;6847;48.830;9.116;2023-05-22T12:10:52;97513.41;;;38.53;29.44
13553;BME280;6847;48.830;9.116;2023-05-22T12:13:35;97542.13;;;38.51;28.81
13553;BME280;6847;48.830;9.116;2023-05-22T12:16:17;97546.06;;;38.44;29.14
13553;BME280;6847;48.830;9.116;2023-05-22T12:18:44;97534.13;;;38.40;29.53
13553;BME280;6847;48.830;9.116;2023-05-22T12:21:10;97540.56;;;38.41;29.15
13553;BME280;6847;48.830;9.116;2023-05-22T12:23:46;97535.09;;;38.37;29.08
13553;BME280;6847;48.830;9.116;2023-05-22T12:26:14;97531.16;;;38.26;29.24
13553;BME280;6847;48.830;9.116;2023-05-22T12:28:42;97523.13;;;38.24;28.94
13553;BME280;6847;48.830;9.116;2023-05-22T12:31:09;97520.28;;;38.42;29.43
13553;BME280;6847;48.830;9.116;2023-05-22T12:33:38;97524.69;;;38.62;28.79
13553;BME280;6847;48.830;9.116;2023-05-22T12:36:06;97527.19;;;38.87;28.87
13553;BME280;6847;48.830;9.116;2023-05-22T12:38:36;97533.44;;;39.00;28.98
13553;BME280;6847;48.830;9.116;2023-05-22T12:41:03;97526.47;;;39.19;28.45
13553;BME280;6847;48.830;9.116;2023-05-22T12:43:30;97455.13;;;39.06;28.13
13553;BME280;6847;48.830;9.116;2023-05-22T12:45:58;97538.78;;;39.82;27.88
13553;BME280;6847;48.830;9.116;2023-05-22T12:48:26;97533.78;;;40.01;27.94
13553;BME280;6847;48.830;9.116;2023-05-22T12:50:53;97540.25;;;40.02;27.76
13553;BME280;6847;48.830;9.116;2023-05-22T12:53:20;97543.38;;;40.04;27.96
13553;BME280;6847;48.830;9.116;2023-05-22T12:55:47;97542.13;;;40.28;27.32
13553;BME280;6847;48.830;9.116;2023-05-22T12:58:14;97538.63;;;40.48;27.20
13553;BME280;6847;48.830;9.116;2023-05-22T13:00:41;97539.88;;;40.86;26.74
13553;BME280;6847;48.830;9.116;2023-05-22T13:03:09;97544.97;;;41.26;26.84
13553;BME280;6847;48.830;9.116;2023-05-22T13:05:36;97538.22;;;41.53;26.69
13553;BME280;6847;48.830;9.116;2023-05-22T13:08:03;97532.53;;;41.73;26.31
13553;BME280;6847;48.830;9.116;2023-05-22T13:10:30;97513.00;;;41.60;25.70
13553;BME280;6847;48.830;9.116;2023-05-22T13:12:57;97535.09;;;41.71;26.47
13553;BME280;6847;48.830;9.116;2023-05-22T13:15:24;97527.06;;;41.69;25.98
13553;BME280;6847;48.830;9.116;2023-05-22T13:17:53;97524.59;;;41.77;26.28